createdAt,value
2018-03-25T00:00:01.992Z,53.50
2018-03-25T00:02:30.209Z,53.60
2018-03-25T00:04:57.681Z,53.60
2018-03-25T00:07:25.158Z,53.60
2018-03-25T00:09:52.622Z,53.80
2018-03-25T00:12:20.089Z,53.70
2018-03-25T00:14:48.313Z,53.80
2018-03-25T00:17:15.775Z,53.80
2018-03-25T00:19:43.272Z,53.80
2018-03-25T00:22:10.730Z,54.00
2018-03-25T00:24:38.189Z,54.00
2018-03-25T00:27:05.643Z,54.20
2018-03-25T00:29:33.097Z,54.10
2018-03-25T00:32:00.554Z,54.10
2018-03-25T00:34:28.015Z,54.30
2018-03-25T00:36:55.475Z,54.40
2018-03-25T00:39:22.940Z,54.30
2018-03-25T00:41:51.165Z,54.40
2018-03-25T00:44:18.630Z,54.40
2018-03-25T00:46:46.089Z,54.30
2018-03-25T00:49:13.549Z,54.20
2018-03-25T00:51:41.018Z,54.20
2018-03-25T00:54:08.487Z,54.20
2018-03-25T00:56:35.957Z,54.10
2018-03-25T00:59:03.405Z,54.30
2018-03-25T01:01:30.870Z,54.50
2018-03-25T01:03:58.319Z,54.50
2018-03-25T01:06:25.785Z,54.50
2018-03-25T01:08:53.959Z,54.50
2018-03-25T01:11:22.188Z,48.80
2018-03-25T01:13:49.648Z,48.10
2018-03-25T01:16:17.126Z,47.20
2018-03-25T01:18:45.345Z,46.60
2018-03-25T01:21:12.806Z,46.60
2018-03-25T01:23:40.258Z,47.00
2018-03-25T01:26:08.493Z,47.70
2018-03-25T01:28:35.976Z,47.70
2018-03-25T01:31:03.429Z,47.90
2018-03-25T01:33:30.889Z,48.20
2018-03-25T01:35:58.350Z,48.50
2018-03-25T01:38:25.801Z,48.90
2018-03-25T01:40:53.261Z,49.00
2018-03-25T01:43:20.717Z,49.10
2018-03-25T01:45:48.177Z,49.10
2018-03-25T01:48:15.631Z,48.90
2018-03-25T01:50:43.096Z,48.60
2018-03-25T01:53:10.556Z,48.50
2018-03-25T01:55:38.774Z,48.50
2018-03-25T01:58:06.246Z,48.50
2018-03-25T02:00:34.479Z,47.80
2018-03-25T02:03:02.708Z,48.80
2018-03-25T02:05:30.161Z,48.80
2018-03-25T02:07:57.657Z,49.20
2018-03-25T02:10:25.908Z,47.80
2018-03-25T02:12:53.378Z,47.20
2018-03-25T02:15:20.837Z,48.70
2018-03-25T02:17:48.297Z,48.00
2018-03-25T02:20:16.533Z,48.00
2018-03-25T02:22:44.002Z,48.00
2018-03-25T02:25:11.445Z,48.60
2018-03-25T02:27:38.922Z,48.30
2018-03-25T02:30:06.402Z,49.80
2018-03-25T02:32:34.668Z,47.90
2018-03-25T02:35:02.131Z,47.90
2018-03-25T02:37:29.592Z,47.30
2018-03-25T02:39:57.045Z,48.20
2018-03-25T02:42:24.519Z,48.80
2018-03-25T02:44:52.756Z,49.50
2018-03-25T02:47:20.228Z,49.40
2018-03-25T02:49:47.703Z,49.50
2018-03-25T02:52:15.934Z,48.90
2018-03-25T02:54:43.398Z,48.90
2018-03-25T02:57:10.866Z,49.50
2018-03-25T02:59:38.349Z,50.00
2018-03-25T03:02:05.798Z,49.80
2018-03-25T03:04:33.258Z,49.80
2018-03-25T03:07:00.711Z,49.20
2018-03-25T03:09:28.174Z,49.00
2018-03-25T03:11:55.622Z,49.20
2018-03-25T03:14:23.865Z,50.00
2018-03-25T03:16:52.341Z,50.00
2018-03-25T03:19:19.817Z,49.90
2018-03-25T03:21:47.274Z,49.50
2018-03-25T03:24:14.745Z,49.70
2018-03-25T03:26:42.217Z,49.60
2018-03-25T03:29:09.693Z,49.90
2018-03-25T03:31:37.910Z,50.60
2018-03-25T03:34:06.936Z,50.60
2018-03-25T03:36:34.396Z,50.50
2018-03-25T03:42:04.360Z,49.70
2018-03-25T03:44:31.817Z,49.80
2018-03-25T03:46:59.280Z,49.90
2018-03-25T03:49:27.518Z,49.70
2018-03-25T03:51:54.973Z,49.70
2018-03-25T03:54:22.433Z,50.60
2018-03-25T03:56:49.882Z,50.70
2018-03-25T03:59:17.349Z,50.30
2018-03-25T04:01:44.813Z,50.30
2018-03-25T04:04:12.260Z,50.00
2018-03-25T04:06:39.718Z,49.80
2018-03-25T04:09:07.222Z,49.40
2018-03-25T04:11:35.434Z,49.60
2018-03-25T04:14:02.887Z,49.60
2018-03-25T04:16:31.105Z,49.40
2018-03-25T04:18:59.329Z,49.30
2018-03-25T04:21:27.014Z,49.30
2018-03-25T04:23:54.469Z,50.10
2018-03-25T04:26:21.931Z,51.10
2018-03-25T04:28:49.386Z,50.80
2018-03-25T04:31:16.854Z,50.80
2018-03-25T04:33:44.306Z,50.80
2018-03-25T04:36:11.770Z,51.10
2018-03-25T04:38:39.225Z,51.00
2018-03-25T04:41:06.685Z,51.00
2018-03-25T04:43:34.146Z,50.80
2018-03-25T04:46:01.605Z,51.00
2018-03-25T04:48:29.077Z,50.40
2018-03-25T04:50:57.304Z,50.80
2018-03-25T04:53:24.768Z,50.70
2018-03-25T04:55:52.242Z,50.60
2018-03-25T04:58:19.697Z,50.30
2018-03-25T05:00:47.166Z,50.50
2018-03-25T05:03:14.629Z,50.40
2018-03-25T05:05:42.092Z,51.00
2018-03-25T05:08:09.541Z,50.70
2018-03-25T05:10:37.004Z,50.30
2018-03-25T05:13:04.462Z,50.50
2018-03-25T05:15:31.918Z,50.50
2018-03-25T05:17:59.372Z,50.30
2018-03-25T05:20:26.864Z,49.30
2018-03-25T05:22:54.322Z,49.50
2018-03-25T05:25:21.799Z,49.90
2018-03-25T05:27:49.270Z,50.40
2018-03-25T05:30:16.735Z,50.20
2018-03-25T05:32:44.191Z,50.40
2018-03-25T05:35:11.678Z,50.70
2018-03-25T05:37:39.129Z,50.50
2018-03-25T05:40:06.581Z,50.60
2018-03-25T05:42:34.053Z,50.40
2018-03-25T05:45:01.517Z,49.30
2018-03-25T05:47:28.978Z,48.60
2018-03-25T05:49:57.208Z,48.50
2018-03-25T05:52:24.678Z,47.90
2018-03-25T05:54:52.126Z,48.30
2018-03-25T05:57:19.593Z,48.60
2018-03-25T05:59:47.050Z,48.20
2018-03-25T06:02:14.509Z,48.20
2018-03-25T06:04:41.965Z,48.20
2018-03-25T06:07:10.223Z,48.80
2018-03-25T06:09:37.645Z,48.70
2018-03-25T06:12:05.101Z,48.70
2018-03-25T06:14:32.566Z,48.60
2018-03-25T06:17:00.048Z,48.50
2018-03-25T06:19:27.516Z,48.10
2018-03-25T06:21:54.989Z,49.00
2018-03-25T06:24:22.442Z,48.60
2018-03-25T06:26:49.931Z,49.00
2018-03-25T06:29:17.377Z,49.70
2018-03-25T06:31:44.825Z,49.40
2018-03-25T06:34:12.286Z,49.90
2018-03-25T06:36:39.736Z,49.90
2018-03-25T06:39:07.195Z,49.90
2018-03-25T06:41:34.650Z,50.40
2018-03-25T06:44:02.872Z,50.30
2018-03-25T06:46:30.327Z,50.30
2018-03-25T06:48:57.793Z,50.40
2018-03-25T06:51:25.242Z,50.00
2018-03-25T06:53:52.713Z,49.20
2018-03-25T06:56:20.182Z,49.50
2018-03-25T06:58:47.646Z,50.50
2018-03-25T07:01:15.106Z,49.80
2018-03-25T07:03:42.575Z,49.30
2018-03-25T07:06:10.041Z,49.60
2018-03-25T07:08:37.564Z,49.90
2018-03-25T07:11:04.998Z,50.00
2018-03-25T07:13:33.209Z,49.60
2018-03-25T07:16:00.679Z,49.60
2018-03-25T07:18:28.150Z,49.80
2018-03-25T07:20:55.606Z,49.60
2018-03-25T07:23:23.073Z,49.30
2018-03-25T07:25:50.532Z,49.30
2018-03-25T07:28:17.981Z,49.60
2018-03-25T07:30:45.438Z,49.20
2018-03-25T07:33:13.689Z,49.30
2018-03-25T07:35:41.146Z,49.30
2018-03-25T07:38:08.606Z,49.10
2018-03-25T07:40:36.069Z,48.80
2018-03-25T07:43:03.533Z,48.20
2018-03-25T07:45:30.998Z,48.30
2018-03-25T07:47:58.441Z,48.20
2018-03-25T07:50:25.897Z,47.90
2018-03-25T07:52:53.361Z,47.50
2018-03-25T07:55:20.823Z,47.80
2018-03-25T07:57:48.268Z,47.30
2018-03-25T08:00:15.726Z,47.00
2018-03-25T08:02:43.185Z,47.10
2018-03-25T08:05:10.645Z,47.60
2018-03-25T08:07:38.111Z,46.70
2018-03-25T08:10:05.575Z,46.40
2018-03-25T08:12:33.022Z,47.30
2018-03-25T08:15:00.486Z,47.00
2018-03-25T08:17:27.937Z,46.90
2018-03-25T08:19:56.957Z,47.70
2018-03-25T08:22:24.429Z,47.70
2018-03-25T08:24:51.885Z,48.30
2018-03-25T08:27:19.369Z,47.70
2018-03-25T08:29:46.828Z,47.70
2018-03-25T08:32:14.304Z,47.70
2018-03-25T08:34:41.768Z,47.60
2018-03-25T08:37:09.224Z,47.40
2018-03-25T08:39:36.683Z,47.80
2018-03-25T08:42:04.146Z,47.20
2018-03-25T08:44:31.605Z,48.10
2018-03-25T08:46:59.061Z,46.80
2018-03-25T08:49:26.552Z,46.90
2018-03-25T08:51:54.772Z,45.70
2018-03-25T08:54:22.240Z,45.60
2018-03-25T08:56:49.705Z,45.80
2018-03-25T08:59:17.154Z,45.90
2018-03-25T09:01:44.615Z,45.80
2018-03-25T09:04:12.076Z,45.60
2018-03-25T09:06:39.534Z,45.90
2018-03-25T09:09:06.989Z,45.50
2018-03-25T09:11:34.445Z,45.30
2018-03-25T09:14:01.902Z,45.60
2018-03-25T09:16:29.362Z,45.80
2018-03-25T09:18:56.819Z,45.20
2018-03-25T09:21:24.316Z,45.30
2018-03-25T09:23:52.556Z,43.80
2018-03-25T09:26:20.017Z,43.90
2018-03-25T09:28:47.481Z,43.70
2018-03-25T09:31:14.985Z,44.00
2018-03-25T09:33:43.206Z,43.70
2018-03-25T09:36:10.674Z,43.70
2018-03-25T09:38:38.134Z,43.70
2018-03-25T09:41:05.603Z,43.80
2018-03-25T09:43:33.041Z,43.30
2018-03-25T09:46:00.506Z,43.30
2018-03-25T09:48:27.953Z,43.80
2018-03-25T09:50:55.413Z,43.40
2018-03-25T09:53:23.633Z,43.00
2018-03-25T09:55:51.092Z,43.00
2018-03-25T09:58:18.553Z,43.30
2018-03-25T10:00:48.589Z,43.30
2018-03-25T10:06:14.853Z,42.30
2018-03-25T10:08:42.627Z,42.90
2018-03-25T10:11:10.181Z,43.20
2018-03-25T10:13:37.642Z,43.00
2018-03-25T10:16:05.101Z,42.90
2018-03-25T10:18:32.682Z,43.00
2018-03-25T10:21:00.232Z,43.20
2018-03-25T10:23:27.689Z,43.10
2018-03-25T10:25:55.141Z,42.80
2018-03-25T10:28:22.629Z,42.50
2018-03-25T10:30:50.845Z,42.80
2018-03-25T10:33:18.313Z,42.70
2018-03-25T10:35:46.529Z,43.10
2018-03-25T10:38:14.007Z,43.10
2018-03-25T10:40:41.504Z,42.90
2018-03-25T10:46:20.706Z,43.10
2018-03-25T10:48:48.942Z,42.90
2018-03-25T10:51:16.397Z,42.90
2018-03-25T10:53:44.104Z,42.30
2018-03-25T10:56:12.321Z,42.40
2018-03-25T10:58:39.782Z,42.20
2018-03-25T11:01:07.235Z,41.80
2018-03-25T11:03:34.697Z,41.80
2018-03-25T11:06:02.143Z,41.20
2018-03-25T11:08:29.624Z,41.00
2018-03-25T11:10:57.069Z,40.90
2018-03-25T11:13:24.530Z,41.20
2018-03-25T11:15:51.981Z,41.10
2018-03-25T11:18:19.452Z,40.60
2018-03-25T11:20:46.902Z,39.90
2018-03-25T11:23:14.362Z,39.30
2018-03-25T11:25:42.590Z,39.90
2018-03-25T11:28:10.819Z,39.30
2018-03-25T11:30:38.272Z,39.30
2018-03-25T11:33:05.730Z,39.00
2018-03-25T11:35:33.202Z,39.40
2018-03-25T11:38:00.666Z,39.10
2018-03-25T11:40:28.126Z,39.20
2018-03-25T11:42:55.605Z,38.70
2018-03-25T11:45:23.838Z,38.00
2018-03-25T11:47:51.289Z,38.00
2018-03-25T11:50:18.744Z,37.80
2018-03-25T11:52:46.197Z,37.80
2018-03-25T11:55:13.657Z,38.40
2018-03-25T11:57:41.125Z,38.80
2018-03-25T12:00:08.590Z,37.60
2018-03-25T12:02:36.049Z,38.20
2018-03-25T12:05:03.497Z,38.00
2018-03-25T12:07:30.954Z,38.00
2018-03-25T12:09:58.414Z,38.20
2018-03-25T12:12:25.866Z,37.90
2018-03-25T12:14:53.352Z,38.30
2018-03-25T12:17:20.786Z,37.60
2018-03-25T12:19:48.249Z,37.90
2018-03-25T12:22:15.717Z,38.30
2018-03-25T12:24:43.185Z,37.40
2018-03-25T12:27:10.676Z,37.80
2018-03-25T12:29:38.225Z,37.00
2018-03-25T12:32:06.450Z,37.50
2018-03-25T12:34:33.912Z,37.50
2018-03-25T12:37:02.142Z,36.60
2018-03-25T12:39:30.361Z,36.20
2018-03-25T12:41:57.817Z,36.20
2018-03-25T12:44:25.279Z,36.50
2018-03-25T12:46:52.723Z,36.90
2018-03-25T12:49:20.198Z,37.20
2018-03-25T12:54:38.026Z,37.40
2018-03-25T12:57:05.566Z,37.40
2018-03-25T12:59:33.068Z,37.80
2018-03-25T13:02:00.531Z,37.40
2018-03-25T13:04:28.007Z,37.80
2018-03-25T13:06:55.659Z,37.80
2018-03-25T13:09:23.097Z,37.90
2018-03-25T13:11:50.607Z,37.70
2018-03-25T13:14:18.338Z,36.90
2018-03-25T13:16:46.618Z,37.10
2018-03-25T13:19:14.076Z,37.10
2018-03-25T13:24:32.609Z,38.10
2018-03-25T13:27:00.074Z,38.00
2018-03-25T13:29:27.596Z,37.90
2018-03-25T13:31:55.070Z,37.80
2018-03-25T13:34:22.514Z,37.70
2018-03-25T13:36:50.046Z,38.00
2018-03-25T13:39:18.329Z,37.70
2018-03-25T13:41:46.562Z,37.40
2018-03-25T13:44:14.777Z,37.50
2018-03-25T13:46:42.997Z,37.40
2018-03-25T13:49:10.454Z,37.40
2018-03-25T13:51:38.721Z,37.70
2018-03-25T13:54:06.541Z,37.70
2018-03-25T13:56:33.962Z,37.40
2018-03-25T13:59:01.444Z,37.80
2018-03-25T14:01:28.920Z,38.20
2018-03-25T14:03:56.365Z,39.00
2018-03-25T14:06:23.839Z,39.40
2018-03-25T14:08:52.062Z,39.70
2018-03-25T14:11:19.521Z,39.80
2018-03-25T14:13:46.977Z,39.40
2018-03-25T14:16:14.444Z,40.20
2018-03-25T14:18:41.893Z,40.00
2018-03-25T14:21:09.362Z,39.50
2018-03-25T14:23:36.813Z,39.50
2018-03-25T14:29:03.403Z,40.20
2018-03-25T14:31:30.965Z,40.10
2018-03-25T14:36:48.882Z,39.40
2018-03-25T14:39:16.338Z,39.60
2018-03-25T14:41:43.824Z,39.40
2018-03-25T14:44:11.289Z,39.30
2018-03-25T14:46:38.766Z,39.30
2018-03-25T14:49:06.214Z,38.90
2018-03-25T14:51:34.450Z,36.60
2018-03-25T14:54:01.923Z,36.60
2018-03-25T14:56:29.406Z,37.00
2018-03-25T14:58:56.841Z,37.00
2018-03-25T15:01:24.305Z,37.00
2018-03-25T15:06:42.305Z,37.90
2018-03-25T15:09:09.773Z,37.50
2018-03-25T15:11:37.243Z,40.50
2018-03-25T15:14:04.710Z,42.50
2018-03-25T15:16:32.167Z,41.70
2018-03-25T15:18:59.648Z,41.20
2018-03-25T15:21:27.753Z,41.40
2018-03-25T15:23:55.990Z,40.20
2018-03-25T15:26:23.442Z,40.20
2018-03-25T15:28:51.857Z,39.90
2018-03-25T15:31:20.265Z,39.90
2018-03-25T15:33:47.733Z,39.80
2018-03-25T15:36:15.190Z,40.00
2018-03-25T15:38:42.652Z,39.50
2018-03-25T15:41:10.109Z,39.70
2018-03-25T15:43:37.645Z,39.60
2018-03-25T15:46:05.088Z,39.80
2018-03-25T15:48:32.549Z,40.00
2018-03-25T15:51:00.042Z,40.10
2018-03-25T15:53:27.469Z,39.70
2018-03-25T15:55:55.698Z,43.60
2018-03-25T15:58:23.164Z,43.70
2018-03-25T16:00:51.386Z,41.50
2018-03-25T16:03:18.930Z,41.50
2018-03-25T16:05:47.187Z,41.40
2018-03-25T16:08:14.642Z,41.40
2018-03-25T16:10:42.169Z,41.60
2018-03-25T16:13:09.646Z,41.90
2018-03-25T16:15:37.100Z,42.10
2018-03-25T16:18:04.577Z,42.10
2018-03-25T16:20:32.034Z,41.70
2018-03-25T16:22:59.494Z,41.30
2018-03-25T16:25:27.722Z,41.80
2018-03-25T16:27:55.184Z,41.70
2018-03-25T16:30:22.653Z,41.90
2018-03-25T16:32:50.099Z,42.10
2018-03-25T16:35:17.558Z,42.00
2018-03-25T16:37:45.001Z,42.70
2018-03-25T16:40:12.462Z,42.50
2018-03-25T16:42:39.919Z,42.70
2018-03-25T16:45:07.403Z,43.20
2018-03-25T16:47:36.958Z,43.20
2018-03-25T16:50:04.449Z,43.40
2018-03-25T16:52:31.911Z,43.70
2018-03-25T16:54:59.432Z,43.80
2018-03-25T16:57:27.615Z,43.30
2018-03-25T16:59:55.098Z,43.40
2018-03-25T17:02:22.565Z,44.20
2018-03-25T17:04:50.113Z,44.60
2018-03-25T17:07:18.306Z,44.50
2018-03-25T17:09:45.787Z,44.50
2018-03-25T17:12:13.254Z,44.80
2018-03-25T17:14:41.515Z,45.20
2018-03-25T17:17:09.007Z,45.20
2018-03-25T17:19:36.463Z,45.80
2018-03-25T17:22:03.939Z,45.60
2018-03-25T17:24:31.410Z,44.70
2018-03-25T17:26:58.890Z,44.10
2018-03-25T17:29:26.346Z,43.90
2018-03-25T17:31:53.818Z,44.30
2018-03-25T17:34:21.282Z,44.30
2018-03-25T17:36:48.794Z,43.80
2018-03-25T17:39:16.308Z,44.00
2018-03-25T17:41:44.560Z,43.30
2018-03-25T17:44:12.792Z,42.90
2018-03-25T17:46:40.268Z,42.90
2018-03-25T17:49:07.724Z,43.10
2018-03-25T17:51:35.210Z,43.20
2018-03-25T17:54:02.685Z,43.80
2018-03-25T17:56:30.161Z,44.10
2018-03-25T17:58:58.402Z,45.70
2018-03-25T18:07:08.599Z,48.00
2018-03-25T18:09:36.070Z,47.90
2018-03-25T18:12:03.782Z,48.50
2018-03-25T18:14:31.291Z,49.40
2018-03-25T18:16:58.759Z,49.50
2018-03-25T18:19:27.000Z,49.20
2018-03-25T18:21:54.487Z,49.20
2018-03-25T18:24:21.989Z,49.80
2018-03-25T18:26:49.501Z,50.10
2018-03-25T18:29:17.755Z,50.70
2018-03-25T18:31:45.274Z,50.70
2018-03-25T18:34:12.771Z,50.50
2018-03-25T18:36:40.366Z,50.60
2018-03-25T18:39:08.799Z,50.90
2018-03-25T18:41:36.299Z,50.80
2018-03-25T18:44:04.591Z,51.00
2018-03-25T18:46:32.830Z,50.90
2018-03-25T18:49:00.302Z,50.90
2018-03-25T18:51:27.763Z,51.00
2018-03-25T18:53:55.234Z,51.10
2018-03-25T18:56:23.524Z,51.20
2018-03-25T18:58:51.007Z,51.20
2018-03-25T19:01:18.481Z,51.10
2018-03-25T19:03:45.950Z,50.80
2018-03-25T19:06:13.431Z,51.00
2018-03-25T19:08:41.674Z,51.20
2018-03-25T19:11:09.186Z,51.20
2018-03-25T19:13:36.694Z,51.40
2018-03-25T19:16:05.146Z,51.60
2018-03-25T19:18:32.629Z,51.40
2018-03-25T19:21:00.092Z,51.50
2018-03-25T19:23:27.562Z,51.40
2018-03-25T19:25:55.049Z,51.80
2018-03-25T19:28:23.292Z,51.50
2018-03-25T19:30:50.782Z,51.50
2018-03-25T19:33:18.252Z,51.30
2018-03-25T19:35:45.750Z,51.30
2018-03-25T19:38:13.811Z,51.10
2018-03-25T19:40:41.305Z,51.50
2018-03-25T19:43:09.522Z,51.60
2018-03-25T19:45:37.012Z,51.60
2018-03-25T19:48:04.492Z,51.30
2018-03-25T19:50:31.955Z,51.20
2018-03-25T19:52:59.418Z,51.20
2018-03-25T19:55:26.889Z,51.40
2018-03-25T19:57:55.135Z,51.00
2018-03-25T20:00:22.606Z,50.90
2018-03-25T20:02:50.080Z,51.40
2018-03-25T20:05:18.337Z,51.20
2018-03-25T20:07:46.587Z,51.70
2018-03-25T20:10:14.053Z,51.70
2018-03-25T20:12:41.546Z,51.80
2018-03-25T20:15:09.796Z,51.90
2018-03-25T20:17:37.263Z,51.90
2018-03-25T20:20:04.840Z,52.00
2018-03-25T20:22:32.411Z,52.20
2018-03-25T20:24:59.831Z,52.40
2018-03-25T20:27:27.414Z,52.40
2018-03-25T20:29:55.652Z,52.50
2018-03-25T20:32:23.127Z,52.50
2018-03-25T20:34:50.608Z,52.30
2018-03-25T20:37:18.136Z,52.20
2018-03-25T20:39:45.623Z,52.60
2018-03-25T20:42:13.910Z,52.60
2018-03-25T20:44:42.176Z,52.50
2018-03-25T20:47:10.401Z,52.60
2018-03-25T20:49:37.878Z,52.70
2018-03-25T20:52:05.373Z,52.80
2018-03-25T20:54:33.626Z,52.80
2018-03-25T20:57:02.476Z,52.80
2018-03-25T20:59:30.478Z,55.90
2018-03-25T21:01:57.938Z,63.40
2018-03-25T21:04:25.414Z,59.90
2018-03-25T21:06:52.874Z,58.10
2018-03-25T21:09:21.102Z,56.80
2018-03-25T21:11:48.578Z,56.80
2018-03-25T21:14:16.075Z,56.30
2018-03-25T21:16:44.370Z,55.40
2018-03-25T21:19:12.331Z,55.40
2018-03-25T21:21:40.017Z,54.90
2018-03-25T21:24:07.505Z,54.50
2018-03-25T21:26:35.007Z,54.20
2018-03-25T21:29:02.767Z,53.70
2018-03-25T21:31:31.113Z,53.40
2018-03-25T21:33:58.589Z,53.40
2018-03-25T21:36:26.866Z,52.90
2018-03-25T21:38:55.095Z,52.70
2018-03-25T21:41:22.790Z,52.60
2018-03-25T21:43:50.694Z,52.40
2018-03-25T21:46:19.004Z,52.10
2018-03-25T21:48:46.570Z,52.00
2018-03-25T21:51:14.838Z,51.70
2018-03-25T21:53:42.313Z,51.70
2018-03-25T21:56:09.786Z,51.60
2018-03-25T21:58:38.034Z,51.30
2018-03-25T22:01:05.496Z,51.30
2018-03-25T22:03:33.034Z,51.60
2018-03-25T22:06:01.247Z,51.00
2018-03-25T22:08:28.725Z,51.00
2018-03-25T22:10:56.186Z,50.80
2018-03-25T22:13:23.709Z,50.80
2018-03-25T22:15:51.178Z,50.70
2018-03-25T22:18:19.446Z,50.70
2018-03-25T22:20:46.933Z,50.60
2018-03-25T22:23:14.390Z,50.80
2018-03-25T22:25:41.871Z,51.00
2018-03-25T22:28:10.102Z,51.00
2018-03-25T22:30:37.587Z,51.00
2018-03-25T22:33:05.821Z,51.20
2018-03-25T22:35:33.293Z,51.20
2018-03-25T22:38:00.770Z,51.30
2018-03-25T22:40:28.244Z,51.40
2018-03-25T22:42:56.506Z,51.50
2018-03-25T22:45:23.970Z,51.50
2018-03-25T22:47:52.222Z,51.80
2018-03-25T22:50:19.699Z,51.80
2018-03-25T22:52:47.178Z,51.70
2018-03-25T22:55:16.435Z,52.00
2018-03-25T22:57:43.910Z,52.00
2018-03-25T23:00:11.375Z,52.00
2018-03-25T23:02:39.626Z,52.20
2018-03-25T23:05:07.102Z,52.20
2018-03-25T23:07:34.564Z,52.20
2018-03-25T23:10:02.038Z,52.20
2018-03-25T23:12:30.290Z,52.20
2018-03-25T23:14:57.759Z,52.20
2018-03-25T23:17:26.002Z,52.40
2018-03-25T23:19:53.487Z,52.40
2018-03-25T23:22:21.739Z,52.60
2018-03-25T23:24:49.197Z,52.60
2018-03-25T23:27:16.675Z,52.60
2018-03-25T23:29:44.950Z,52.70
2018-03-25T23:32:12.425Z,52.60
2018-03-25T23:34:40.662Z,52.80
2018-03-25T23:37:08.143Z,52.80
2018-03-25T23:39:35.601Z,52.90
2018-03-25T23:42:03.066Z,52.90
2018-03-25T23:44:31.330Z,53.00
2018-03-25T23:46:58.790Z,53.00
2018-03-25T23:49:26.514Z,53.00
2018-03-25T23:51:54.894Z,53.20
2018-03-25T23:54:22.370Z,53.20
2018-03-25T23:56:49.908Z,54.00
2018-03-25T23:59:17.374Z,53.30
